Time;durP1;ratioP1;P1;durP2;ratioP2;P2;SDS_P1;SDS_P2;PMS_P1;PMS_P2;Temp;Humidity;BMP_temperature;BMP_pressure;BME280_temperature;BME280_humidity;BME280_pressure;Samples;Min_cycle;Max_cycle;Signal;HPM_P1;HPM_P2
2022/08/18 00:01:33;;;;;;;16.02;14.43;;;27.20;55.50;;;;;;4920678;52;21441;-33
2022/08/18 00:06:33;;;;;;;16.05;14.48;;;27.20;55.60;;;;;;4909833;56;20987;-35
2022/08/18 00:11:44;;;;;;;16.15;14.45;;;27.20;55.50;;;;;;4952632;52;21038;-26
2022/08/18 00:16:45;;;;;;;15.50;13.90;;;27.10;55.50;;;;;;4998665;52;20959;-31
2022/08/18 00:21:46;;;;;;;15.48;13.88;;;27.20;55.50;;;;;;4934049;52;20992;-31
2022/08/18 00:26:47;;;;;;;15.50;13.90;;;27.20;55.50;;;;;;4933853;52;21022;-35
2022/08/18 00:31:48;;;;;;;16.23;14.63;;;27.20;55.50;;;;;;4932984;52;21023;-26
2022/08/18 00:36:49;;;;;;;15.23;13.62;;;27.20;55.50;;;;;;4961762;52;21031;-30
2022/08/18 00:41:50;;;;;;;14.32;12.93;;;27.20;55.50;;;;;;4925669;52;21050;-29
2022/08/18 00:46:51;;;;;;;15.73;13.50;;;27.20;55.50;;;;;;4972251;52;21042;-26
2022/08/18 00:51:52;;;;;;;14.68;13.25;;;27.20;55.60;;;;;;4910404;53;21497;-27
2022/08/18 00:56:59;;;;;;;16.12;14.15;;;27.20;55.60;;;;;;4956867;52;20967;-26
2022/08/18 01:02:04;;;;;;;15.05;13.52;;;27.20;55.60;;;;;;4925839;52;21039;-33
2022/08/18 01:07:19;;;;;;;14.27;12.82;;;27.20;55.50;;;;;;4908989;56;20975;-26
2022/08/18 01:12:20;;;;;;;14.43;13.00;;;27.20;55.60;;;;;;4949059;52;21557;-33
2022/08/18 01:23:15;;;;;;;14.27;12.77;;;27.20;55.60;;;;;;4909446;52;21067;-35
2022/08/18 01:28:18;;;;;;;14.00;12.63;;;27.10;55.60;;;;;;4910827;52;21087;-34
2022/08/18 01:33:19;;;;;;;14.75;13.25;;;27.10;55.60;;;;;;4915786;52;21147;-35
2022/08/18 01:38:21;;;;;;;13.30;12.00;;;27.10;55.60;;;;;;4926758;52;21516;-33
2022/08/18 01:43:22;;;;;;;13.20;11.93;;;27.10;55.60;;;;;;5006780;52;21489;-26
2022/08/18 01:48:24;;;;;;;13.62;12.25;;;27.10;55.60;;;;;;4909677;56;20971;-26
2022/08/18 01:53:26;;;;;;;13.25;11.90;;;27.10;55.60;;;;;;4934694;52;21118;-34
2022/08/18 01:58:27;;;;;;;13.75;12.35;;;27.10;55.60;;;;;;4932955;52;21549;-36
2022/08/18 02:03:33;;;;;;;13.93;12.45;;;27.10;55.70;;;;;;4929265;52;21047;-33
2022/08/18 02:08:34;;;;;;;12.93;11.63;;;27.10;55.60;;;;;;4919548;52;20991;-34
2022/08/18 02:13:35;;;;;;;12.95;11.73;;;27.10;55.60;;;;;;4978662;52;21130;-28
2022/08/18 02:18:36;;;;;;;13.18;11.85;;;27.10;55.60;;;;;;4925216;52;21357;-32
2022/08/18 02:23:38;;;;;;;12.25;11.05;;;27.10;55.60;;;;;;4947355;52;20996;-34
2022/08/18 02:28:40;;;;;;;12.63;11.40;;;27.10;55.60;;;;;;4909059;53;21106;-27
2022/08/18 02:33:41;;;;;;;12.98;11.68;;;27.10;55.60;;;;;;4918181;52;21055;-35
2022/08/18 02:38:43;;;;;;;12.35;11.15;;;27.10;55.60;;;;;;4951844;52;21023;-33
2022/08/18 02:43:44;;;;;;;12.93;11.63;;;27.10;55.60;;;;;;4926219;52;20983;-34
2022/08/18 02:48:46;;;;;;;13.02;11.68;;;27.10;55.60;;;;;;4916501;52;21034;-26
2022/08/18 02:53:47;;;;;;;12.05;10.85;;;27.10;55.60;;;;;;4916178;52;21521;-33
2022/08/18 02:58:59;;;;;;;12.32;11.12;;;27.10;55.60;;;;;;4911371;52;21051;-28
2022/08/18 03:04:03;;;;;;;11.32;10.20;;;27.10;55.60;;;;;;4909569;56;21486;-31
2022/08/18 03:09:09;;;;;;;11.55;10.35;;;27.10;55.60;;;;;;4935320;52;21470;-34
2022/08/18 03:14:10;;;;;;;;;;;27.10;55.60;;;;;;4913058;52;20983;-32
2022/08/18 03:19:14;;;;;;;11.18;10.07;;;27.10;55.60;;;;;;4938610;52;20061;-27
2022/08/18 03:24:16;;;;;;;12.27;11.02;;;27.10;55.60;;;;;;4932937;52;21504;-34
2022/08/18 03:29:18;;;;;;;11.25;10.10;;;27.10;55.70;;;;;;4915289;52;21509;-33
2022/08/18 03:34:19;;;;;;;10.88;9.82;;;27.00;56.10;;;;;;4928510;52;21615;-27
2022/08/18 03:39:25;;;;;;;11.50;10.40;;;27.00;55.50;;;;;;4934090;52;20968;-35
2022/08/18 03:44:32;;;;;;;11.48;10.27;;;27.10;55.50;;;;;;4918286;52;21611;-27
2022/08/18 03:49:32;;;;;;;;;;;27.10;55.50;;;;;;4916296;52;21023;-35
2022/08/18 03:54:37;;;;;;;10.57;9.48;;;27.10;55.50;;;;;;4910161;56;20103;-33
2022/08/18 03:59:42;;;;;;;11.20;10.00;;;27.10;55.50;;;;;;4933955;52;21449;-33
2022/08/18 04:04:43;;;;;;;11.60;10.40;;;27.00;55.40;;;;;;4913388;52;21030;-34
2022/08/18 04:09:44;;;;;;;10.60;9.57;;;27.10;55.40;;;;;;4921631;52;21117;-33
2022/08/18 04:14:48;;;;;;;10.23;9.20;;;27.00;55.40;;;;;;4909391;56;21720;-35
2022/08/18 04:19:50;;;;;;;10.32;9.32;;;27.00;55.40;;;;;;4951885;52;21019;-30
2022/08/18 04:24:51;;;;;;;9.75;8.88;;;27.00;55.40;;;;;;4953940;52;21560;-36
2022/08/18 04:29:55;;;;;;;9.93;9.02;;;27.00;55.40;;;;;;4915643;52;21015;-25
2022/08/18 04:34:56;;;;;;;9.55;8.55;;;27.00;55.40;;;;;;4930703;52;21604;-35
2022/08/18 04:39:58;;;;;;;10.55;9.27;;;27.00;55.30;;;;;;4995637;52;21027;-33
2022/08/18 04:44:59;;;;;;;9.82;8.73;;;27.00;55.30;;;;;;4937185;52;21413;-35
2022/08/18 04:49:59;;;;;;;10.65;9.18;;;27.00;55.30;;;;;;4920408;52;20983;-25
2022/08/18 04:55:02;;;;;;;9.98;9.07;;;27.00;55.30;;;;;;4916583;52;20991;-33
2022/08/18 05:00:06;;;;;;;10.07;9.07;;;27.00;55.30;;;;;;4941248;52;21530;-25
2022/08/18 05:05:08;;;;;;;10.27;9.25;;;27.00;55.20;;;;;;4944882;52;20991;-30
2022/08/18 05:10:11;;;;;;;10.02;8.77;;;27.00;55.20;;;;;;4965988;52;21022;-33
2022/08/18 05:15:12;;;;;;;9.82;8.82;;;27.00;55.20;;;;;;4950037;52;21054;-33
2022/08/18 05:20:13;;;;;;;9.70;8.70;;;27.00;55.20;;;;;;4915413;52;20982;-28
2022/08/18 05:25:15;;;;;;;10.88;9.00;;;27.00;55.20;;;;;;4930625;52;21063;-32
2022/08/18 05:30:15;;;;;;;9.68;8.73;;;27.00;55.30;;;;;;4909610;53;21449;-31
2022/08/18 05:35:23;;;;;;;9.93;8.95;;;27.00;55.20;;;;;;4910216;56;20994;-27
2022/08/18 05:40:25;;;;;;;10.35;8.65;;;27.00;55.20;;;;;;4909999;56;20955;-36
2022/08/18 05:45:26;;;;;;;9.73;8.77;;;27.00;55.20;;;;;;4911338;52;20999;-31
2022/08/18 05:50:30;;;;;;;9.60;8.57;;;26.90;55.10;;;;;;4919537;52;21015;-31
2022/08/18 06:01:07;;;;;;;9.65;8.70;;;26.90;55.10;;;;;;4910202;52;21063;-35
2022/08/18 06:06:12;;;;;;;9.52;8.52;;;26.90;55.10;;;;;;4943442;52;21564;-32
2022/08/18 06:11:13;;;;;;;9.70;8.75;;;26.90;55.10;;;;;;4923639;52;20983;-36
2022/08/18 06:16:47;;;;;;;9.88;8.90;;;26.90;55.10;;;;;;4921689;52;21039;-29
2022/08/18 06:22:18;;;;;;;9.27;8.38;;;26.90;55.10;;;;;;4984808;52;20991;-30
2022/08/18 06:27:54;;;;;;;9.70;8.68;;;26.90;55.20;;;;;;4940892;52;21057;-34
2022/08/18 06:33:30;;;;;;;9.65;8.65;;;27.00;55.30;;;;;;4955029;52;21011;-38
2022/08/18 06:39:55;;;;;;;10.02;9.02;;;26.90;55.20;;;;;;4919862;52;21524;-34
2022/08/18 06:45:11;;;;;;;10.95;9.13;;;26.90;55.30;;;;;;4912253;52;21019;-32
2022/08/18 06:50:27;;;;;;;10.63;9.52;;;26.90;55.30;;;;;;4950028;52;21521;-31
2022/08/18 06:56:24;;;;;;;21.90;13.70;;;26.90;55.40;;;;;;4910043;53;21031;-27
2022/08/18 07:01:25;;;;;;;31.45;17.05;;;26.90;56.20;;;;;;4945425;52;21007;-27
2022/08/18 07:06:30;;;;;;;26.98;16.35;;;26.90;56.60;;;;;;4982750;52;21806;-31
2022/08/18 07:11:32;;;;;;;26.98;16.92;;;26.90;56.70;;;;;;4931249;52;21003;-31
2022/08/18 07:16:34;;;;;;;24.20;16.05;;;26.90;56.70;;;;;;4917416;52;21485;-29
2022/08/18 07:21:37;;;;;;;22.30;15.60;;;26.90;56.90;;;;;;4943251;52;21525;-29
2022/08/18 07:27:43;;;;;;;27.62;16.70;;;26.90;56.90;;;;;;4943515;52;21003;-37
2022/08/18 07:36:20;;;;;;;21.37;15.10;;;26.90;56.90;;;;;;4914484;52;20995;-30
2022/08/18 07:41:47;;;;;;;26.27;17.52;;;27.00;57.00;;;;;;4919750;52;20995;-31
2022/08/18 07:49:34;;;;;;;28.75;18.52;;;27.00;57.20;;;;;;4920298;52;21015;-26
2022/08/18 07:55:17;;;;;;;25.98;15.70;;;27.00;57.00;;;;;;4916105;52;21175;-27
2022/08/18 08:00:38;;;;;;;21.52;15.65;;;27.10;58.20;;;;;;4927573;52;21563;-28
2022/08/18 08:07:26;;;;;;;27.52;19.25;;;27.10;58.40;;;;;;4917791;52;21083;-37
2022/08/18 08:12:50;;;;;;;23.67;18.42;;;27.20;58.40;;;;;;4925979;52;21019;-34
2022/08/18 08:18:30;;;;;;;20.98;17.75;;;27.30;58.50;;;;;;4929801;52;21469;-28
2022/08/18 08:23:54;;;;;;;20.50;17.00;;;27.30;59.00;;;;;;4936237;52;21011;-34
2022/08/18 08:30:18;;;;;;;22.02;18.00;;;27.30;58.80;;;;;;4912991;52;21477;-33
2022/08/18 08:36:24;;;;;;;21.50;16.20;;;27.40;58.80;;;;;;4915500;52;20971;-35
2022/08/18 08:41:34;;;;;;;22.58;17.80;;;27.40;58.80;;;;;;4912100;52;21362;-27
2022/08/18 08:46:50;;;;;;;22.70;17.12;;;27.50;58.40;;;;;;4921790;52;22008;-36
2022/08/18 08:52:03;;;;;;;21.35;17.62;;;27.50;58.70;;;;;;4977843;52;21038;-35
2022/08/18 08:57:05;;;;;;;20.12;16.73;;;27.50;58.50;;;;;;4945410;52;21031;-37
2022/08/18 09:03:09;;;;;;;21.12;16.80;;;27.50;58.40;;;;;;4965573;52;21007;-27
2022/08/18 09:17:36;;;;;;;20.23;16.95;;;27.50;58.20;;;;;;4932226;52;21149;-31
2022/08/18 09:22:53;;;;;;;20.20;17.23;;;27.50;58.00;;;;;;4936423;52;21047;-26
2022/08/18 09:28:18;;;;;;;25.70;19.75;;;27.50;57.70;;;;;;4911632;52;20980;-33
2022/08/18 09:35:14;;;;;;;34.23;26.97;;;27.60;57.20;;;;;;4926493;52;22163;-35
2022/08/18 09:45:54;;;;;;;38.10;31.12;;;27.80;56.50;;;;;;4909686;52;21108;-27
2022/08/18 09:51:05;;;;;;;39.50;32.03;;;27.90;56.30;;;;;;4941920;52;20999;-29
2022/08/18 09:56:06;;;;;;;46.67;36.10;;;27.90;56.00;;;;;;4914015;52;21078;-35
2022/08/18 10:01:35;;;;;;;49.92;40.25;;;27.90;55.80;;;;;;4925625;52;21433;-35
2022/08/18 10:06:38;;;;;;;48.42;39.78;;;28.10;55.30;;;;;;4915524;52;21615;-35
2022/08/18 10:12:21;;;;;;;45.83;37.83;;;28.10;55.10;;;;;;4909090;56;21077;-31
2022/08/18 10:18:44;;;;;;;42.05;31.92;;;28.10;54.70;;;;;;4931171;52;20963;-26
2022/08/18 10:25:41;;;;;;;39.08;30.88;;;28.20;54.40;;;;;;4984682;52;22139;-36
2022/08/18 10:30:46;;;;;;;47.60;39.50;;;28.20;54.80;;;;;;4944742;52;21039;-46
2022/08/18 10:35:57;;;;;;;55.72;41.05;;;28.30;54.20;;;;;;4908981;56;21051;-31
2022/08/18 10:41:11;;;;;;;47.05;33.13;;;28.30;53.90;;;;;;4918467;52;21477;-36
2022/08/18 10:46:56;;;;;;;37.33;27.75;;;28.40;53.80;;;;;;4926815;52;21141;-27
2022/08/18 10:53:44;;;;;;;33.80;25.80;;;28.50;53.40;;;;;;4920275;52;20990;-26
2022/08/18 11:00:25;;;;;;;28.20;21.75;;;28.50;52.70;;;;;;4911070;52;21568;-33
2022/08/18 11:05:27;;;;;;;24.55;19.70;;;28.50;51.20;;;;;;4910645;52;22042;-34
2022/08/18 11:10:47;;;;;;;23.40;18.87;;;28.50;51.80;;;;;;4926208;52;20963;-32
2022/08/18 11:18:28;;;;;;;24.60;18.75;;;28.40;55.80;;;;;;4908375;56;21529;-31
2022/08/18 11:23:29;;;;;;;26.73;18.75;;;28.20;55.00;;;;;;4909155;53;21548;-34
2022/08/18 11:28:30;;;;;;;24.08;18.27;;;28.10;55.00;;;;;;4913037;52;20995;-37
2022/08/18 11:33:31;;;;;;;29.40;22.83;;;28.10;55.00;;;;;;4923717;52;21456;-31
2022/08/18 11:38:33;;;;;;;30.00;23.00;;;28.10;55.00;;;;;;4909256;56;21044;-32
2022/08/18 11:43:36;;;;;;;23.23;18.73;;;28.20;49.90;;;;;;4922273;52;21474;-28
2022/08/18 11:48:47;;;;;;;21.62;17.58;;;28.40;47.50;;;;;;4979135;52;21066;-32
2022/08/18 11:54:38;;;;;;;28.67;23.25;;;28.50;46.50;;;;;;4940852;52;21123;-29
2022/08/18 11:59:39;;;;;;;31.37;25.08;;;28.60;45.80;;;;;;4914162;52;20992;-31
2022/08/18 12:04:44;;;;;;;28.27;22.30;;;28.70;45.30;;;;;;4942137;52;21497;-32
2022/08/18 12:10:11;;;;;;;25.95;18.70;;;28.80;44.30;;;;;;4914958;52;21581;-35
2022/08/18 12:15:31;;;;;;;19.95;14.87;;;28.80;43.60;;;;;;4990187;52;21569;-29
2022/08/18 12:20:32;;;;;;;16.95;13.48;;;28.80;42.50;;;;;;4927608;52;20988;-32
2022/08/18 12:25:33;;;;;;;18.62;14.93;;;28.90;42.10;;;;;;4924594;52;21003;-31
2022/08/18 12:30:34;;;;;;;18.05;12.93;;;29.00;42.00;;;;;;4913889;52;22040;-28
2022/08/18 12:35:35;;;;;;;13.75;11.15;;;28.90;41.80;;;;;;4910989;56;20983;-34
2022/08/18 12:40:35;;;;;;;17.60;10.38;;;29.00;41.60;;;;;;4944051;52;21470;-35
2022/08/18 12:45:37;;;;;;;15.25;13.20;;;29.00;41.20;;;;;;4909489;56;20992;-36
2022/08/18 12:50:39;;;;;;;18.30;14.55;;;29.00;40.70;;;;;;4920727;52;21534;-28
2022/08/18 12:55:43;;;;;;;15.32;12.18;;;29.00;40.60;;;;;;4925407;52;21098;-31
2022/08/18 13:00:44;;;;;;;14.80;12.10;;;29.00;40.40;;;;;;4946797;52;21057;-33
2022/08/18 13:05:45;;;;;;;13.38;10.75;;;29.00;40.00;;;;;;4919099;52;21480;-34
2022/08/18 13:10:47;;;;;;;15.02;10.43;;;29.10;40.00;;;;;;4919097;52;21043;-32
2022/08/18 13:15:48;;;;;;;18.40;10.70;;;29.10;39.80;;;;;;4958495;52;21513;-36
2022/08/18 13:20:49;;;;;;;18.05;11.18;;;29.10;39.80;;;;;;4918745;52;21533;-31
2022/08/18 13:25:49;;;;;;;21.70;14.77;;;29.30;39.40;;;;;;4960243;52;20987;-32
2022/08/18 13:30:50;;;;;;;22.45;16.00;;;29.30;40.00;;;;;;4947482;52;20980;-30
2022/08/18 13:35:53;;;;;;;18.20;14.90;;;29.30;39.40;;;;;;4947012;52;21074;-32
2022/08/18 13:40:57;;;;;;;18.42;14.57;;;29.30;39.30;;;;;;4944571;52;21051;-38
2022/08/18 13:45:58;;;;;;;17.20;13.38;;;29.40;39.20;;;;;;4912334;52;20968;-32
2022/08/18 13:51:00;;;;;;;19.87;12.27;;;29.50;39.10;;;;;;4936363;52;21473;-27
2022/08/18 13:56:02;;;;;;;16.45;10.98;;;29.50;38.60;;;;;;4937153;52;21077;-32
2022/08/18 14:01:08;;;;;;;16.23;11.82;;;29.60;38.30;;;;;;4933993;52;20987;-31
2022/08/18 14:06:10;;;;;;;21.73;15.07;;;29.60;38.30;;;;;;4923270;52;21007;-30
2022/08/18 14:11:11;;;;;;;88.97;79.50;;;29.50;38.40;;;;;;4914324;52;20992;-27
2022/08/18 14:16:11;;;;;;;47.35;42.42;;;29.50;38.10;;;;;;4924895;52;20935;-33
2022/08/18 14:26:48;;;;;;;32.92;21.77;;;29.60;37.50;;;;;;4923404;52;21473;-29
2022/08/18 14:31:49;;;;;;;135.93;121.55;;;29.70;37.50;;;;;;4920528;52;21542;-27
2022/08/18 14:36:50;;;;;;;44.60;39.28;;;29.70;37.30;;;;;;4910278;56;21434;-31
2022/08/18 14:41:50;;;;;;;23.95;18.70;;;29.80;37.80;;;;;;4936606;52;21034;-34
2022/08/18 14:46:51;;;;;;;19.37;13.88;;;29.80;37.20;;;;;;4958333;52;21079;-27
2022/08/18 14:51:52;;;;;;;23.17;15.75;;;29.80;37.50;;;;;;4920563;52;20987;-37
2022/08/18 14:56:53;;;;;;;19.48;15.07;;;29.60;38.10;;;;;;4934651;52;21022;-31
2022/08/18 15:01:54;;;;;;;19.87;15.70;;;29.40;38.80;;;;;;4909662;56;21019;-27
2022/08/18 15:06:55;;;;;;;20.40;16.10;;;29.20;39.30;;;;;;4929905;52;21563;-28
2022/08/18 15:11:57;;;;;;;18.15;15.57;;;29.10;39.70;;;;;;4919981;52;21019;-29
2022/08/18 15:16:59;;;;;;;18.10;15.05;;;29.00;40.20;;;;;;4906241;52;20983;-27
2022/08/18 15:27:20;;;;;;;20.98;15.02;;;28.80;41.00;;;;;;4909160;52;21023;-33
2022/08/18 15:32:21;;;;;;;19.15;15.00;;;28.70;41.30;;;;;;4914230;52;20979;-35
2022/08/18 15:37:22;;;;;;;18.48;14.68;;;28.70;41.70;;;;;;4915228;52;21446;-31
2022/08/18 15:42:25;;;;;;;19.27;15.88;;;28.60;41.90;;;;;;4943364;52;20976;-28
2022/08/18 15:47:26;;;;;;;18.27;14.52;;;28.60;42.30;;;;;;4915940;52;21459;-34
2022/08/18 15:52:28;;;;;;;16.80;14.90;;;28.60;42.60;;;;;;4942212;52;20991;-36
2022/08/18 15:57:29;;;;;;;17.50;15.23;;;28.50;42.80;;;;;;4916769;52;21513;-32
2022/08/18 16:02:30;;;;;;;18.15;15.73;;;28.50;43.70;;;;;;4910020;56;20979;-37
2022/08/18 16:07:30;;;;;;;17.55;15.52;;;28.50;43.90;;;;;;4973695;52;20972;-34
2022/08/18 16:12:32;;;;;;;16.27;14.65;;;28.40;43.50;;;;;;4910520;52;21067;-37
2022/08/18 16:17:33;;;;;;;19.65;15.52;;;28.40;43.80;;;;;;4938106;52;20983;-31
2022/08/18 16:22:36;;;;;;;17.92;14.70;;;28.40;44.00;;;;;;4975702;52;21007;-29
2022/08/18 16:27:41;;;;;;;18.30;15.45;;;28.40;44.20;;;;;;4963488;52;21525;-36
2022/08/18 16:32:42;;;;;;;17.63;15.73;;;28.30;44.40;;;;;;4925300;52;22035;-31
2022/08/18 16:37:44;;;;;;;16.95;15.15;;;28.40;44.70;;;;;;4958544;52;21019;-30
2022/08/18 16:42:46;;;;;;;19.73;15.52;;;28.30;44.80;;;;;;4927569;52;21913;-34
2022/08/18 16:47:47;;;;;;;18.48;15.77;;;28.30;45.00;;;;;;4925591;52;21019;-27
2022/08/18 16:52:48;;;;;;;18.20;15.90;;;28.30;45.20;;;;;;4910015;53;21516;-29
2022/08/18 17:08:30;;;;;;;20.52;17.30;;;28.20;45.80;;;;;;4908499;52;21023;-37
2022/08/18 17:13:33;;;;;;;18.17;16.30;;;28.20;46.00;;;;;;4956748;52;21491;-36
2022/08/18 17:18:34;;;;;;;20.55;17.12;;;28.20;46.10;;;;;;4909482;53;21517;-32
2022/08/18 17:23:36;;;;;;;19.20;17.10;;;28.20;46.30;;;;;;4913051;52;20999;-26
2022/08/18 17:28:43;;;;;;;19.75;17.27;;;28.20;46.50;;;;;;4960026;52;21075;-34
2022/08/18 17:33:44;;;;;;;20.30;17.45;;;28.20;46.70;;;;;;4910054;56;21012;-32
2022/08/18 17:38:50;;;;;;;19.02;16.83;;;28.20;46.80;;;;;;4958602;52;21504;-35
2022/08/18 17:43:55;;;;;;;21.67;17.98;;;28.20;47.00;;;;;;4909473;53;20995;-32
2022/08/18 17:51:32;;;;;;;18.87;16.87;;;28.20;47.10;;;;;;4917126;52;21003;-31
2022/08/18 17:56:41;;;;;;;19.17;17.12;;;28.20;47.30;;;;;;4984449;52;21453;-27
2022/08/18 18:01:42;;;;;;;20.90;17.73;;;28.20;47.50;;;;;;4948203;52;20984;-33
2022/08/18 18:06:43;;;;;;;20.95;17.90;;;28.10;47.50;;;;;;4908697;56;20995;-28
2022/08/18 18:11:47;;;;;;;20.60;18.48;;;28.20;47.70;;;;;;4909309;56;21016;-33
2022/08/18 18:17:18;;;;;;;20.20;17.80;;;28.10;47.90;;;;;;4916487;52;21007;-26
2022/08/18 18:22:28;;;;;;;21.05;18.10;;;28.10;48.60;;;;;;4929370;52;21098;-32
2022/08/18 18:27:47;;;;;;;19.45;17.35;;;28.10;48.10;;;;;;4929475;52;21539;-35
2022/08/18 18:33:01;;;;;;;19.35;17.25;;;28.10;48.20;;;;;;4925901;52;21089;-32
2022/08/18 18:38:05;;;;;;;20.50;17.60;;;28.10;48.40;;;;;;4909828;56;20963;-32
2022/08/18 18:45:02;;;;;;;20.20;17.85;;;28.10;48.50;;;;;;4961351;52;21018;-26
2022/08/18 18:50:57;;;;;;;20.95;18.65;;;28.10;48.70;;;;;;4933578;52;20980;-26
2022/08/18 18:56:18;;;;;;;21.10;17.93;;;28.10;48.80;;;;;;4915580;52;21031;-32
2022/08/18 19:03:05;;;;;;;20.42;18.23;;;28.10;48.90;;;;;;4910424;56;21078;-30
2022/08/18 19:09:37;;;;;;;20.15;18.05;;;28.10;49.10;;;;;;4918142;52;21071;-34
2022/08/18 19:14:47;;;;;;;19.42;17.35;;;28.10;49.10;;;;;;4919531;52;21098;-34
2022/08/18 19:20:02;;;;;;;23.00;19.27;;;28.10;49.30;;;;;;4912102;52;21050;-35
2022/08/18 19:25:53;;;;;;;20.05;17.92;;;28.00;49.30;;;;;;4943784;52;20967;-28
2022/08/18 19:30:57;;;;;;;20.73;18.50;;;28.00;49.40;;;;;;4930584;52;21183;-27
2022/08/18 19:36:15;;;;;;;21.05;18.35;;;28.00;49.50;;;;;;4942147;52;21003;-28
2022/08/18 19:42:11;;;;;;;20.62;18.42;;;28.00;49.60;;;;;;4933983;52;20970;-30
2022/08/18 19:47:45;;;;;;;21.02;18.83;;;28.00;49.70;;;;;;4928009;52;21094;-34
2022/08/18 20:00:11;;;;;;;21.02;18.83;;;28.00;49.80;;;;;;4928436;52;21540;-32
2022/08/18 20:09:44;;;;;;;20.20;18.12;;;28.00;50.00;;;;;;4913123;52;22312;-35
2022/08/18 20:15:00;;;;;;;21.73;19.42;;;28.00;50.10;;;;;;4909761;52;21026;-34
2022/08/18 20:20:12;;;;;;;23.30;20.90;;;28.10;50.30;;;;;;4949887;52;20975;-37
2022/08/18 20:25:55;;;;;;;22.60;20.30;;;28.00;50.30;;;;;;4926119;52;20991;-35
2022/08/18 20:31:11;;;;;;;22.83;20.50;;;28.00;50.40;;;;;;4930227;52;21043;-26
2022/08/18 20:37:24;;;;;;;23.58;21.12;;;28.00;50.50;;;;;;4937752;52;21477;-35
2022/08/18 20:45:12;;;;;;;23.58;20.70;;;28.00;50.50;;;;;;4933098;52;21477;-34
2022/08/18 20:51:33;;;;;;;23.25;20.75;;;28.00;50.70;;;;;;4930204;52;20963;-34
2022/08/18 20:56:51;;;;;;;22.80;20.42;;;28.00;50.80;;;;;;4936546;52;21473;-35
2022/08/18 21:02:02;;;;;;;23.35;20.95;;;28.00;50.80;;;;;;4909626;56;20975;-30
2022/08/18 21:07:03;;;;;;;22.27;19.98;;;28.00;50.90;;;;;;4916346;52;20978;-27
2022/08/18 21:12:05;;;;;;;21.42;19.23;;;28.00;51.00;;;;;;4935063;52;21520;-35
2022/08/18 21:17:13;;;;;;;22.27;20.08;;;28.00;51.10;;;;;;4949197;52;20967;-32
2022/08/18 21:22:13;;;;;;;23.23;20.83;;;28.00;51.20;;;;;;4953024;52;21524;-31
2022/08/18 21:27:29;;;;;;;21.40;19.23;;;28.00;51.30;;;;;;4939191;52;21019;-32
2022/08/18 21:32:33;;;;;;;21.30;19.10;;;28.00;51.30;;;;;;4964275;52;20999;-34
2022/08/18 21:37:41;;;;;;;22.35;20.08;;;28.00;51.30;;;;;;4923259;52;21003;-35
2022/08/18 21:42:44;;;;;;;22.42;20.02;;;28.00;51.40;;;;;;4910322;56;21015;-32
2022/08/18 21:47:57;;;;;;;22.08;19.62;;;27.90;51.40;;;;;;4948784;52;21500;-25
2022/08/18 21:53:34;;;;;;;21.52;19.33;;;27.90;51.50;;;;;;4921173;52;21025;-28
2022/08/18 21:58:41;;;;;;;22.35;19.95;;;27.90;51.60;;;;;;4936525;52;21015;-29
2022/08/18 22:03:58;;;;;;;21.95;19.62;;;27.90;51.70;;;;;;4910284;53;21314;-28
2022/08/18 22:14:47;;;;;;;20.43;18.23;;;27.90;51.80;;;;;;4909059;56;21106;-36
2022/08/18 22:19:49;;;;;;;20.67;18.55;;;27.90;51.90;;;;;;4925805;52;21579;-27
2022/08/18 22:24:54;;;;;;;21.73;19.52;;;27.90;51.90;;;;;;4952645;52;21520;-30
2022/08/18 22:30:02;;;;;;;21.77;19.48;;;27.90;52.00;;;;;;4909580;56;21122;-29
2022/08/18 22:35:07;;;;;;;20.88;18.55;;;27.90;52.00;;;;;;4910431;53;21532;-32
2022/08/18 22:40:13;;;;;;;21.58;19.02;;;27.90;52.10;;;;;;4910106;56;21062;-28
2022/08/18 22:45:14;;;;;;;21.30;19.12;;;27.90;52.10;;;;;;4945772;52;21039;-29
2022/08/18 22:50:15;;;;;;;21.00;18.90;;;27.90;52.20;;;;;;4926566;52;21426;-26
2022/08/18 22:55:18;;;;;;;21.25;18.98;;;27.90;52.20;;;;;;4944685;52;20999;-31
2022/08/18 23:00:22;;;;;;;21.35;18.92;;;27.90;52.30;;;;;;4941668;52;21528;-31
2022/08/18 23:05:23;;;;;;;20.65;18.48;;;27.90;52.30;;;;;;4939384;52;21561;-34
2022/08/18 23:10:25;;;;;;;20.15;17.65;;;27.90;52.40;;;;;;4910824;52;21134;-33
2022/08/18 23:21:31;;;;;;;19.65;17.60;;;27.90;52.50;;;;;;4937880;52;21482;-33
2022/08/18 23:26:32;;;;;;;19.73;17.62;;;27.90;52.50;;;;;;4936398;52;21482;-36
2022/08/18 23:31:33;;;;;;;19.85;17.77;;;27.90;52.60;;;;;;4922262;52;21450;-26
2022/08/18 23:36:38;;;;;;;20.12;18.02;;;27.90;52.60;;;;;;4936279;52;20975;-27
2022/08/18 23:41:39;;;;;;;19.48;17.37;;;27.90;52.60;;;;;;4926066;52;21521;-37
2022/08/18 23:46:42;;;;;;;19.92;17.85;;;27.90;52.70;;;;;;4918374;52;21078;-26
2022/08/18 23:51:49;;;;;;;19.50;17.33;;;27.90;52.70;;;;;;4909747;56;21548;-34
2022/08/18 23:56:50;;;;;;;19.35;17.27;;;27.90;52.70;;;;;;4917082;52;21457;-34
